sensor_id;sensor_type;location;lat;lon;timestamp;P1;durP1;ratioP1;P2;durP2;ratioP2
8737;SDS011;4405;49.272;8.590;2023-02-04T00:00:53;3.70;;;3.50;;
8737;SDS011;4405;49.272;8.590;2023-02-04T00:03:20;4.17;;;3.97;;
8737;SDS011;4405;49.272;8.590;2023-02-04T00:05:47;4.40;;;4.03;;
8737;SDS011;4405;49.272;8.590;2023-02-04T00:08:14;3.90;;;3.60;;
8737;SDS011;4405;49.272;8.590;2023-02-04T00:10:40;4.23;;;4.03;;
8737;SDS011;4405;49.272;8.590;2023-02-04T00:13:06;3.50;;;3.30;;
8737;SDS011;4405;49.272;8.590;2023-02-04T00:15:33;3.93;;;3.63;;
8737;SDS011;4405;49.272;8.590;2023-02-04T00:17:59;3.60;;;3.40;;
8737;SDS011;4405;49.272;8.590;2023-02-04T00:20:25;3.83;;;3.47;;
8737;SDS011;4405;49.272;8.590;2023-02-04T00:22:53;4.00;;;3.70;;
8737;SDS011;4405;49.272;8.590;2023-02-04T00:25:21;4.17;;;3.87;;
8737;SDS011;4405;49.272;8.590;2023-02-04T00:27:47;4.27;;;3.90;;
8737;SDS011;4405;49.272;8.590;2023-02-04T00:30:13;6.17;;;4.63;;
8737;SDS011;4405;49.272;8.590;2023-02-04T00:32:40;4.50;;;4.10;;
8737;SDS011;4405;49.272;8.590;2023-02-04T00:35:06;4.47;;;4.07;;
8737;SDS011;4405;49.272;8.590;2023-02-04T00:37:33;4.37;;;4.07;;
8737;SDS011;4405;49.272;8.590;2023-02-04T00:40:01;4.80;;;4.50;;
8737;SDS011;4405;49.272;8.590;2023-02-04T00:42:27;4.33;;;3.93;;
8737;SDS011;4405;49.272;8.590;2023-02-04T00:44:53;4.57;;;4.27;;
8737;SDS011;4405;49.272;8.590;2023-02-04T00:47:20;4.43;;;4.10;;
8737;SDS011;4405;49.272;8.590;2023-02-04T00:49:46;3.30;;;3.10;;
8737;SDS011;4405;49.272;8.590;2023-02-04T00:52:12;2.40;;;2.30;;
8737;SDS011;4405;49.272;8.590;2023-02-04T00:54:39;2.13;;;2.03;;
8737;SDS011;4405;49.272;8.590;2023-02-04T00:57:06;2.53;;;2.43;;
8737;SDS011;4405;49.272;8.590;2023-02-04T00:59:33;2.47;;;2.33;;
8737;SDS011;4405;49.272;8.590;2023-02-04T01:01:59;3.23;;;3.03;;
8737;SDS011;4405;49.272;8.590;2023-02-04T01:04:25;3.10;;;3.00;;
8737;SDS011;4405;49.272;8.590;2023-02-04T01:06:52;3.97;;;3.67;;
8737;SDS011;4405;49.272;8.590;2023-02-04T01:09:18;3.00;;;2.80;;
8737;SDS011;4405;49.272;8.590;2023-02-04T01:11:45;2.97;;;2.87;;
8737;SDS011;4405;49.272;8.590;2023-02-04T01:14:12;2.80;;;2.50;;
8737;SDS011;4405;49.272;8.590;2023-02-04T01:16:39;2.43;;;2.23;;
8737;SDS011;4405;49.272;8.590;2023-02-04T01:19:05;1.87;;;1.87;;
8737;SDS011;4405;49.272;8.590;2023-02-04T01:21:31;1.80;;;1.73;;
8737;SDS011;4405;49.272;8.590;2023-02-04T01:23:58;1.73;;;1.63;;
8737;SDS011;4405;49.272;8.590;2023-02-04T01:26:24;1.90;;;1.80;;
8737;SDS011;4405;49.272;8.590;2023-02-04T01:28:50;2.30;;;1.80;;
8737;SDS011;4405;49.272;8.590;2023-02-04T01:31:18;2.10;;;1.43;;
8737;SDS011;4405;49.272;8.590;2023-02-04T01:33:44;1.50;;;1.50;;
8737;SDS011;4405;49.272;8.590;2023-02-04T01:36:11;1.53;;;1.50;;
8737;SDS011;4405;49.272;8.590;2023-02-04T01:38:37;1.47;;;1.43;;
8737;SDS011;4405;49.272;8.590;2023-02-04T01:41:04;1.50;;;1.30;;
8737;SDS011;4405;49.272;8.590;2023-02-04T01:43:30;1.80;;;1.33;;
8737;SDS011;4405;49.272;8.590;2023-02-04T01:45:57;1.10;;;1.10;;
8737;SDS011;4405;49.272;8.590;2023-02-04T01:48:25;2.17;;;1.20;;
8737;SDS011;4405;49.272;8.590;2023-02-04T01:50:52;1.23;;;1.07;;
8737;SDS011;4405;49.272;8.590;2023-02-04T01:53:19;1.50;;;1.40;;
8737;SDS011;4405;49.272;8.590;2023-02-04T01:55:46;1.13;;;1.00;;
8737;SDS011;4405;49.272;8.590;2023-02-04T01:58:12;1.60;;;1.20;;
8737;SDS011;4405;49.272;8.590;2023-02-04T02:00:39;1.33;;;1.20;;
8737;SDS011;4405;49.272;8.590;2023-02-04T02:03:06;1.10;;;1.10;;
8737;SDS011;4405;49.272;8.590;2023-02-04T02:05:37;1.20;;;1.20;;
8737;SDS011;4405;49.272;8.590;2023-02-04T02:08:04;2.17;;;0.87;;
8737;SDS011;4405;49.272;8.590;2023-02-04T02:10:31;1.50;;;1.10;;
8737;SDS011;4405;49.272;8.590;2023-02-04T02:12:58;1.30;;;1.20;;
8737;SDS011;4405;49.272;8.590;2023-02-04T02:15:24;1.30;;;0.83;;
8737;SDS011;4405;49.272;8.590;2023-02-04T02:17:51;2.30;;;1.10;;
8737;SDS011;4405;49.272;8.590;2023-02-04T02:20:18;1.67;;;1.10;;
8737;SDS011;4405;49.272;8.590;2023-02-04T02:22:50;1.00;;;1.00;;
8737;SDS011;4405;49.272;8.590;2023-02-04T02:25:21;1.00;;;0.90;;
8737;SDS011;4405;49.272;8.590;2023-02-04T02:27:48;1.47;;;1.20;;
8737;SDS011;4405;49.272;8.590;2023-02-04T02:30:14;2.23;;;1.23;;
8737;SDS011;4405;49.272;8.590;2023-02-04T02:32:43;5.40;;;1.40;;
8737;SDS011;4405;49.272;8.590;2023-02-04T02:35:10;2.33;;;1.10;;
8737;SDS011;4405;49.272;8.590;2023-02-04T02:37:36;3.90;;;1.40;;
8737;SDS011;4405;49.272;8.590;2023-02-04T02:40:03;3.57;;;1.27;;
8737;SDS011;4405;49.272;8.590;2023-02-04T02:42:31;2.83;;;1.40;;
8737;SDS011;4405;49.272;8.590;2023-02-04T02:44:58;3.70;;;1.20;;
8737;SDS011;4405;49.272;8.590;2023-02-04T02:47:25;3.23;;;1.20;;
8737;SDS011;4405;49.272;8.590;2023-02-04T02:49:52;1.43;;;1.03;;
8737;SDS011;4405;49.272;8.590;2023-02-04T02:52:19;2.60;;;1.20;;
8737;SDS011;4405;49.272;8.590;2023-02-04T02:54:47;1.60;;;0.90;;
8737;SDS011;4405;49.272;8.590;2023-02-04T02:57:14;2.87;;;1.30;;
8737;SDS011;4405;49.272;8.590;2023-02-04T02:59:42;4.07;;;1.60;;
8737;SDS011;4405;49.272;8.590;2023-02-04T03:02:08;4.30;;;1.50;;
8737;SDS011;4405;49.272;8.590;2023-02-04T03:04:36;5.73;;;1.40;;
8737;SDS011;4405;49.272;8.590;2023-02-04T03:07:04;5.23;;;1.57;;
8737;SDS011;4405;49.272;8.590;2023-02-04T03:09:31;9.13;;;2.20;;
8737;SDS011;4405;49.272;8.590;2023-02-04T03:11:58;5.77;;;2.00;;
8737;SDS011;4405;49.272;8.590;2023-02-04T03:14:24;8.70;;;1.97;;
8737;SDS011;4405;49.272;8.590;2023-02-04T03:16:52;7.40;;;2.20;;
8737;SDS011;4405;49.272;8.590;2023-02-04T03:19:19;6.20;;;2.10;;
8737;SDS011;4405;49.272;8.590;2023-02-04T03:21:45;11.07;;;2.30;;
8737;SDS011;4405;49.272;8.590;2023-02-04T03:24:12;10.93;;;2.30;;
8737;SDS011;4405;49.272;8.590;2023-02-04T03:26:38;6.80;;;2.60;;
8737;SDS011;4405;49.272;8.590;2023-02-04T03:29:05;9.83;;;2.40;;
8737;SDS011;4405;49.272;8.590;2023-02-04T03:31:32;10.97;;;2.73;;
8737;SDS011;4405;49.272;8.590;2023-02-04T03:33:59;6.93;;;2.23;;
8737;SDS011;4405;49.272;8.590;2023-02-04T03:36:26;10.77;;;2.53;;
8737;SDS011;4405;49.272;8.590;2023-02-04T03:38:52;10.10;;;2.30;;
8737;SDS011;4405;49.272;8.590;2023-02-04T03:41:19;12.23;;;2.70;;
8737;SDS011;4405;49.272;8.590;2023-02-04T03:43:45;7.97;;;2.57;;
8737;SDS011;4405;49.272;8.590;2023-02-04T03:46:11;11.70;;;2.53;;
8737;SDS011;4405;49.272;8.590;2023-02-04T03:48:38;13.17;;;2.27;;
8737;SDS011;4405;49.272;8.590;2023-02-04T03:51:06;12.97;;;2.87;;
8737;SDS011;4405;49.272;8.590;2023-02-04T03:53:32;7.33;;;2.03;;
8737;SDS011;4405;49.272;8.590;2023-02-04T03:55:58;12.87;;;2.70;;
8737;SDS011;4405;49.272;8.590;2023-02-04T03:58:25;8.07;;;2.47;;
8737;SDS011;4405;49.272;8.590;2023-02-04T04:00:51;13.30;;;2.50;;
8737;SDS011;4405;49.272;8.590;2023-02-04T04:03:17;8.47;;;2.30;;
8737;SDS011;4405;49.272;8.590;2023-02-04T04:05:43;12.07;;;2.67;;
8737;SDS011;4405;49.272;8.590;2023-02-04T04:08:11;5.20;;;2.27;;
8737;SDS011;4405;49.272;8.590;2023-02-04T04:10:37;9.43;;;2.40;;
8737;SDS011;4405;49.272;8.590;2023-02-04T04:13:04;7.77;;;2.50;;
8737;SDS011;4405;49.272;8.590;2023-02-04T04:15:30;7.93;;;2.20;;
8737;SDS011;4405;49.272;8.590;2023-02-04T04:17:57;9.93;;;2.43;;
8737;SDS011;4405;49.272;8.590;2023-02-04T04:20:23;11.87;;;2.63;;
8737;SDS011;4405;49.272;8.590;2023-02-04T04:22:51;9.10;;;2.70;;
8737;SDS011;4405;49.272;8.590;2023-02-04T04:25:18;8.77;;;2.20;;
8737;SDS011;4405;49.272;8.590;2023-02-04T04:27:45;10.03;;;2.50;;
8737;SDS011;4405;49.272;8.590;2023-02-04T04:30:11;6.93;;;2.20;;
8737;SDS011;4405;49.272;8.590;2023-02-04T04:32:37;11.40;;;2.37;;
8737;SDS011;4405;49.272;8.590;2023-02-04T04:35:04;7.57;;;2.40;;
8737;SDS011;4405;49.272;8.590;2023-02-04T04:37:30;10.07;;;2.70;;
8737;SDS011;4405;49.272;8.590;2023-02-04T04:39:58;8.37;;;2.57;;
8737;SDS011;4405;49.272;8.590;2023-02-04T04:42:27;7.23;;;2.13;;
8737;SDS011;4405;49.272;8.590;2023-02-04T04:44:53;10.97;;;2.40;;
8737;SDS011;4405;49.272;8.590;2023-02-04T04:47:19;7.80;;;2.60;;
8737;SDS011;4405;49.272;8.590;2023-02-04T04:49:46;6.77;;;2.10;;
8737;SDS011;4405;49.272;8.590;2023-02-04T04:52:12;11.93;;;2.90;;
8737;SDS011;4405;49.272;8.590;2023-02-04T04:54:38;6.03;;;2.10;;
8737;SDS011;4405;49.272;8.590;2023-02-04T04:57:05;6.33;;;2.30;;
8737;SDS011;4405;49.272;8.590;2023-02-04T04:59:32;11.70;;;2.87;;
8737;SDS011;4405;49.272;8.590;2023-02-04T05:01:58;9.00;;;3.37;;
8737;SDS011;4405;49.272;8.590;2023-02-04T05:04:25;9.47;;;2.80;;
8737;SDS011;4405;49.272;8.590;2023-02-04T05:06:51;6.13;;;2.33;;
8737;SDS011;4405;49.272;8.590;2023-02-04T05:09:17;8.63;;;2.40;;
8737;SDS011;4405;49.272;8.590;2023-02-04T05:11:44;5.13;;;2.37;;
8737;SDS011;4405;49.272;8.590;2023-02-04T05:14:11;7.73;;;2.40;;
8737;SDS011;4405;49.272;8.590;2023-02-04T05:16:39;6.57;;;2.67;;
8737;SDS011;4405;49.272;8.590;2023-02-04T05:19:05;7.63;;;2.37;;
8737;SDS011;4405;49.272;8.590;2023-02-04T05:21:32;5.63;;;2.27;;
8737;SDS011;4405;49.272;8.590;2023-02-04T05:23:58;8.73;;;2.30;;
8737;SDS011;4405;49.272;8.590;2023-02-04T05:26:24;4.97;;;2.20;;
8737;SDS011;4405;49.272;8.590;2023-02-04T05:28:51;8.00;;;2.00;;
8737;SDS011;4405;49.272;8.590;2023-02-04T05:31:18;4.23;;;2.47;;
8737;SDS011;4405;49.272;8.590;2023-02-04T05:33:45;5.03;;;2.40;;
8737;SDS011;4405;49.272;8.590;2023-02-04T05:36:12;3.90;;;1.73;;
8737;SDS011;4405;49.272;8.590;2023-02-04T05:38:38;4.63;;;2.03;;
8737;SDS011;4405;49.272;8.590;2023-02-04T05:41:04;4.83;;;2.30;;
8737;SDS011;4405;49.272;8.590;2023-02-04T05:43:31;4.80;;;2.10;;
8737;SDS011;4405;49.272;8.590;2023-02-04T05:45:57;6.60;;;2.20;;
8737;SDS011;4405;49.272;8.590;2023-02-04T05:48:23;6.77;;;2.20;;
8737;SDS011;4405;49.272;8.590;2023-02-04T05:50:51;6.67;;;2.27;;
8737;SDS011;4405;49.272;8.590;2023-02-04T05:53:17;5.73;;;2.23;;
8737;SDS011;4405;49.272;8.590;2023-02-04T05:55:44;6.67;;;2.00;;
8737;SDS011;4405;49.272;8.590;2023-02-04T05:58:10;4.50;;;2.17;;
8737;SDS011;4405;49.272;8.590;2023-02-04T06:00:36;6.63;;;2.40;;
8737;SDS011;4405;49.272;8.590;2023-02-04T06:03:03;6.50;;;2.20;;
8737;SDS011;4405;49.272;8.590;2023-02-04T06:05:29;6.60;;;2.13;;
8737;SDS011;4405;49.272;8.590;2023-02-04T06:07:57;7.73;;;2.63;;
8737;SDS011;4405;49.272;8.590;2023-02-04T06:10:23;6.50;;;2.13;;
8737;SDS011;4405;49.272;8.590;2023-02-04T06:12:49;5.40;;;2.53;;
8737;SDS011;4405;49.272;8.590;2023-02-04T06:15:16;5.50;;;2.03;;
8737;SDS011;4405;49.272;8.590;2023-02-04T06:17:42;4.67;;;2.50;;
8737;SDS011;4405;49.272;8.590;2023-02-04T06:20:09;5.83;;;2.33;;
8737;SDS011;4405;49.272;8.590;2023-02-04T06:22:36;3.37;;;2.03;;
8737;SDS011;4405;49.272;8.590;2023-02-04T06:25:04;5.70;;;2.40;;
8737;SDS011;4405;49.272;8.590;2023-02-04T06:27:30;5.73;;;2.10;;
8737;SDS011;4405;49.272;8.590;2023-02-04T06:29:56;4.13;;;2.23;;
8737;SDS011;4405;49.272;8.590;2023-02-04T06:32:23;5.53;;;2.00;;
8737;SDS011;4405;49.272;8.590;2023-02-04T06:34:49;7.90;;;2.77;;
8737;SDS011;4405;49.272;8.590;2023-02-04T06:37:15;7.00;;;2.50;;
8737;SDS011;4405;49.272;8.590;2023-02-04T06:39:42;8.43;;;3.07;;
8737;SDS011;4405;49.272;8.590;2023-02-04T06:42:10;7.63;;;2.80;;
8737;SDS011;4405;49.272;8.590;2023-02-04T06:44:36;9.37;;;3.33;;
8737;SDS011;4405;49.272;8.590;2023-02-04T06:47:02;11.23;;;2.77;;
8737;SDS011;4405;49.272;8.590;2023-02-04T06:49:29;9.40;;;2.70;;
8737;SDS011;4405;49.272;8.590;2023-02-04T06:51:55;6.73;;;2.30;;
8737;SDS011;4405;49.272;8.590;2023-02-04T06:54:21;5.60;;;2.50;;
8737;SDS011;4405;49.272;8.590;2023-02-04T06:56:48;7.80;;;2.70;;
8737;SDS011;4405;49.272;8.590;2023-02-04T06:59:16;8.13;;;2.50;;
8737;SDS011;4405;49.272;8.590;2023-02-04T07:01:42;9.73;;;2.40;;
8737;SDS011;4405;49.272;8.590;2023-02-04T07:04:08;7.47;;;4.33;;
8737;SDS011;4405;49.272;8.590;2023-02-04T07:06:35;8.50;;;5.07;;
8737;SDS011;4405;49.272;8.590;2023-02-04T07:09:01;18.53;;;9.73;;
8737;SDS011;4405;49.272;8.590;2023-02-04T07:11:27;10.90;;;4.73;;
8737;SDS011;4405;49.272;8.590;2023-02-04T07:13:54;5.17;;;3.10;;
8737;SDS011;4405;49.272;8.590;2023-02-04T07:16:21;8.17;;;3.07;;
8737;SDS011;4405;49.272;8.590;2023-02-04T07:18:48;5.83;;;2.40;;
8737;SDS011;4405;49.272;8.590;2023-02-04T07:21:14;6.03;;;2.37;;
8737;SDS011;4405;49.272;8.590;2023-02-04T07:23:41;3.60;;;2.00;;
8737;SDS011;4405;49.272;8.590;2023-02-04T07:26:07;6.00;;;2.40;;
8737;SDS011;4405;49.272;8.590;2023-02-04T07:28:33;4.43;;;1.90;;
8737;SDS011;4405;49.272;8.590;2023-02-04T07:31:00;4.57;;;2.23;;
8737;SDS011;4405;49.272;8.590;2023-02-04T07:33:28;3.57;;;1.87;;
8737;SDS011;4405;49.272;8.590;2023-02-04T07:35:55;4.23;;;2.17;;
8737;SDS011;4405;49.272;8.590;2023-02-04T07:38:21;3.63;;;2.20;;
8737;SDS011;4405;49.272;8.590;2023-02-04T07:40:47;8.47;;;2.50;;
8737;SDS011;4405;49.272;8.590;2023-02-04T07:43:16;7.00;;;4.30;;
8737;SDS011;4405;49.272;8.590;2023-02-04T07:45:42;5.23;;;2.53;;
8737;SDS011;4405;49.272;8.590;2023-02-04T07:48:08;3.20;;;2.20;;
8737;SDS011;4405;49.272;8.590;2023-02-04T07:50:36;6.23;;;3.90;;
8737;SDS011;4405;49.272;8.590;2023-02-04T07:53:03;4.03;;;3.17;;
8737;SDS011;4405;49.272;8.590;2023-02-04T07:55:29;6.63;;;2.40;;
8737;SDS011;4405;49.272;8.590;2023-02-04T07:57:55;7.97;;;2.53;;
8737;SDS011;4405;49.272;8.590;2023-02-04T08:00:22;4.63;;;1.90;;
8737;SDS011;4405;49.272;8.590;2023-02-04T08:02:48;7.67;;;2.70;;
8737;SDS011;4405;49.272;8.590;2023-02-04T08:05:15;4.07;;;2.30;;
8737;SDS011;4405;49.272;8.590;2023-02-04T08:07:42;7.27;;;2.20;;
8737;SDS011;4405;49.272;8.590;2023-02-04T08:10:10;5.53;;;2.30;;
8737;SDS011;4405;49.272;8.590;2023-02-04T08:12:36;6.63;;;2.23;;
8737;SDS011;4405;49.272;8.590;2023-02-04T08:15:02;4.47;;;2.30;;
8737;SDS011;4405;49.272;8.590;2023-02-04T08:17:30;3.77;;;2.50;;
8737;SDS011;4405;49.272;8.590;2023-02-04T08:19:57;7.83;;;2.33;;
8737;SDS011;4405;49.272;8.590;2023-02-04T08:22:23;6.20;;;2.30;;
8737;SDS011;4405;49.272;8.590;2023-02-04T08:24:51;7.20;;;2.70;;
8737;SDS011;4405;49.272;8.590;2023-02-04T08:27:17;6.20;;;2.40;;
8737;SDS011;4405;49.272;8.590;2023-02-04T08:29:43;4.87;;;2.30;;
8737;SDS011;4405;49.272;8.590;2023-02-04T08:32:10;6.77;;;2.63;;
8737;SDS011;4405;49.272;8.590;2023-02-04T08:34:37;5.67;;;2.43;;
8737;SDS011;4405;49.272;8.590;2023-02-04T08:37:03;10.03;;;2.60;;
8737;SDS011;4405;49.272;8.590;2023-02-04T08:39:30;5.00;;;2.60;;
8737;SDS011;4405;49.272;8.590;2023-02-04T08:41:58;7.00;;;2.73;;
8737;SDS011;4405;49.272;8.590;2023-02-04T08:44:24;7.93;;;3.37;;
8737;SDS011;4405;49.272;8.590;2023-02-04T08:46:50;7.07;;;2.97;;
8737;SDS011;4405;49.272;8.590;2023-02-04T08:49:17;6.57;;;3.07;;
8737;SDS011;4405;49.272;8.590;2023-02-04T08:51:43;11.43;;;3.20;;
8737;SDS011;4405;49.272;8.590;2023-02-04T08:54:09;7.83;;;3.10;;
8737;SDS011;4405;49.272;8.590;2023-02-04T08:56:36;6.17;;;3.13;;
8737;SDS011;4405;49.272;8.590;2023-02-04T08:59:03;9.80;;;3.27;;
8737;SDS011;4405;49.272;8.590;2023-02-04T09:01:30;13.33;;;3.40;;
8737;SDS011;4405;49.272;8.590;2023-02-04T09:03:57;8.37;;;4.17;;
8737;SDS011;4405;49.272;8.590;2023-02-04T09:06:23;6.80;;;3.00;;
8737;SDS011;4405;49.272;8.590;2023-02-04T09:08:49;8.07;;;3.30;;
8737;SDS011;4405;49.272;8.590;2023-02-04T09:11:15;9.43;;;3.73;;
8737;SDS011;4405;49.272;8.590;2023-02-04T09:13:42;11.33;;;4.37;;
8737;SDS011;4405;49.272;8.590;2023-02-04T09:16:10;9.17;;;4.23;;
8737;SDS011;4405;49.272;8.590;2023-02-04T09:18:36;8.63;;;3.80;;
8737;SDS011;4405;49.272;8.590;2023-02-04T09:21:02;9.67;;;3.90;;
8737;SDS011;4405;49.272;8.590;2023-02-04T09:23:29;8.33;;;3.67;;
8737;SDS011;4405;49.272;8.590;2023-02-04T09:25:55;7.33;;;3.40;;
8737;SDS011;4405;49.272;8.590;2023-02-04T09:28:22;7.40;;;3.57;;
8737;SDS011;4405;49.272;8.590;2023-02-04T09:30:48;10.37;;;4.33;;
8737;SDS011;4405;49.272;8.590;2023-02-04T09:33:16;9.87;;;3.97;;
8737;SDS011;4405;49.272;8.590;2023-02-04T09:35:42;12.00;;;4.30;;
8737;SDS011;4405;49.272;8.590;2023-02-04T09:38:08;11.03;;;4.23;;
8737;SDS011;4405;49.272;8.590;2023-02-04T09:40:36;13.57;;;4.50;;
8737;SDS011;4405;49.272;8.590;2023-02-04T09:43:03;12.03;;;4.00;;
8737;SDS011;4405;49.272;8.590;2023-02-04T09:45:32;12.53;;;4.27;;
8737;SDS011;4405;49.272;8.590;2023-02-04T09:47:59;12.63;;;4.27;;
8737;SDS011;4405;49.272;8.590;2023-02-04T09:50:28;11.10;;;3.90;;
8737;SDS011;4405;49.272;8.590;2023-02-04T09:52:56;13.40;;;4.23;;
8737;SDS011;4405;49.272;8.590;2023-02-04T09:55:26;8.67;;;3.93;;
8737;SDS011;4405;49.272;8.590;2023-02-04T09:57:53;8.30;;;4.17;;
8737;SDS011;4405;49.272;8.590;2023-02-04T10:00:20;13.07;;;3.80;;
8737;SDS011;4405;49.272;8.590;2023-02-04T10:02:47;14.83;;;4.37;;
8737;SDS011;4405;49.272;8.590;2023-02-04T10:05:14;13.60;;;4.20;;
8737;SDS011;4405;49.272;8.590;2023-02-04T10:07:43;10.50;;;4.10;;
8737;SDS011;4405;49.272;8.590;2023-02-04T10:10:12;13.77;;;4.37;;
8737;SDS011;4405;49.272;8.590;2023-02-04T10:12:40;13.27;;;4.33;;
8737;SDS011;4405;49.272;8.590;2023-02-04T10:15:08;11.10;;;3.77;;
8737;SDS011;4405;49.272;8.590;2023-02-04T10:17:35;7.87;;;4.07;;
8737;SDS011;4405;49.272;8.590;2023-02-04T10:20:01;11.73;;;3.80;;
8737;SDS011;4405;49.272;8.590;2023-02-04T10:22:28;15.20;;;3.97;;
8737;SDS011;4405;49.272;8.590;2023-02-04T10:24:55;14.87;;;4.13;;
8737;SDS011;4405;49.272;8.590;2023-02-04T10:27:22;8.37;;;3.77;;
8737;SDS011;4405;49.272;8.590;2023-02-04T10:29:54;11.43;;;4.13;;
8737;SDS011;4405;49.272;8.590;2023-02-04T10:32:25;13.40;;;3.87;;
8737;SDS011;4405;49.272;8.590;2023-02-04T10:34:55;17.63;;;4.30;;
8737;SDS011;4405;49.272;8.590;2023-02-04T10:37:22;11.27;;;3.57;;
8737;SDS011;4405;49.272;8.590;2023-02-04T10:39:48;12.30;;;3.93;;
8737;SDS011;4405;49.272;8.590;2023-02-04T10:42:20;12.13;;;3.80;;
8737;SDS011;4405;49.272;8.590;2023-02-04T10:44:47;13.53;;;4.30;;
8737;SDS011;4405;49.272;8.590;2023-02-04T10:47:14;18.53;;;9.17;;
8737;SDS011;4405;49.272;8.590;2023-02-04T10:49:41;12.60;;;3.23;;
8737;SDS011;4405;49.272;8.590;2023-02-04T10:52:16;6.67;;;2.80;;
8737;SDS011;4405;49.272;8.590;2023-02-04T10:54:43;14.63;;;3.07;;
8737;SDS011;4405;49.272;8.590;2023-02-04T10:57:12;9.90;;;3.33;;
8737;SDS011;4405;49.272;8.590;2023-02-04T10:59:42;13.13;;;3.83;;
8737;SDS011;4405;49.272;8.590;2023-02-04T11:02:22;16.20;;;3.47;;
8737;SDS011;4405;49.272;8.590;2023-02-04T11:04:52;11.77;;;3.70;;
8737;SDS011;4405;49.272;8.590;2023-02-04T11:07:19;15.23;;;3.83;;
8737;SDS011;4405;49.272;8.590;2023-02-04T11:09:45;10.53;;;3.13;;
8737;SDS011;4405;49.272;8.590;2023-02-04T11:12:18;10.93;;;3.30;;
8737;SDS011;4405;49.272;8.590;2023-02-04T11:14:54;12.33;;;3.10;;
8737;SDS011;4405;49.272;8.590;2023-02-04T11:17:21;12.83;;;3.33;;
8737;SDS011;4405;49.272;8.590;2023-02-04T11:19:53;11.50;;;3.27;;
8737;SDS011;4405;49.272;8.590;2023-02-04T11:22:20;11.27;;;3.73;;
8737;SDS011;4405;49.272;8.590;2023-02-04T11:24:47;8.60;;;3.20;;
8737;SDS011;4405;49.272;8.590;2023-02-04T11:27:18;9.73;;;3.53;;
8737;SDS011;4405;49.272;8.590;2023-02-04T11:29:46;10.10;;;3.47;;
8737;SDS011;4405;49.272;8.590;2023-02-04T11:32:27;6.93;;;3.23;;
8737;SDS011;4405;49.272;8.590;2023-02-04T11:34:53;8.30;;;3.23;;
8737;SDS011;4405;49.272;8.590;2023-02-04T11:37:32;9.73;;;3.53;;
8737;SDS011;4405;49.272;8.590;2023-02-04T11:39:59;7.80;;;3.30;;
8737;SDS011;4405;49.272;8.590;2023-02-04T11:42:28;9.80;;;3.57;;
8737;SDS011;4405;49.272;8.590;2023-02-04T11:44:57;10.90;;;3.70;;
8737;SDS011;4405;49.272;8.590;2023-02-04T11:47:25;10.97;;;4.00;;
8737;SDS011;4405;49.272;8.590;2023-02-04T11:49:53;8.93;;;3.00;;
8737;SDS011;4405;49.272;8.590;2023-02-04T11:52:20;12.53;;;3.50;;
8737;SDS011;4405;49.272;8.590;2023-02-04T11:54:51;11.90;;;3.70;;
8737;SDS011;4405;49.272;8.590;2023-02-04T11:57:18;13.40;;;3.67;;
8737;SDS011;4405;49.272;8.590;2023-02-04T11:59:44;12.37;;;3.63;;
8737;SDS011;4405;49.272;8.590;2023-02-04T12:02:14;10.03;;;3.60;;
8737;SDS011;4405;49.272;8.590;2023-02-04T12:04:55;14.77;;;3.80;;
8737;SDS011;4405;49.272;8.590;2023-02-04T12:07:24;9.33;;;3.40;;
8737;SDS011;4405;49.272;8.590;2023-02-04T12:09:51;16.23;;;4.57;;
8737;SDS011;4405;49.272;8.590;2023-02-04T12:12:22;9.83;;;3.57;;
8737;SDS011;4405;49.272;8.590;2023-02-04T12:14:54;11.40;;;3.07;;
8737;SDS011;4405;49.272;8.590;2023-02-04T12:17:21;9.57;;;2.90;;
8737;SDS011;4405;49.272;8.590;2023-02-04T12:19:47;9.37;;;2.73;;
8737;SDS011;4405;49.272;8.590;2023-02-04T12:22:15;7.40;;;2.63;;
8737;SDS011;4405;49.272;8.590;2023-02-04T12:24:42;9.90;;;3.30;;
8737;SDS011;4405;49.272;8.590;2023-02-04T12:27:09;14.80;;;3.57;;
8737;SDS011;4405;49.272;8.590;2023-02-04T12:29:35;7.23;;;3.17;;
8737;SDS011;4405;49.272;8.590;2023-02-04T12:32:02;10.47;;;3.47;;
8737;SDS011;4405;49.272;8.590;2023-02-04T12:34:28;8.77;;;3.20;;
8737;SDS011;4405;49.272;8.590;2023-02-04T12:36:54;11.23;;;3.40;;
8737;SDS011;4405;49.272;8.590;2023-02-04T12:39:22;9.17;;;2.90;;
8737;SDS011;4405;49.272;8.590;2023-02-04T12:41:48;11.67;;;3.53;;
8737;SDS011;4405;49.272;8.590;2023-02-04T12:44:15;10.70;;;3.00;;
8737;SDS011;4405;49.272;8.590;2023-02-04T12:46:41;8.87;;;3.20;;
8737;SDS011;4405;49.272;8.590;2023-02-04T12:49:07;10.13;;;2.90;;
8737;SDS011;4405;49.272;8.590;2023-02-04T12:51:34;8.43;;;2.80;;
8737;SDS011;4405;49.272;8.590;2023-02-04T12:54:00;8.43;;;2.73;;
8737;SDS011;4405;49.272;8.590;2023-02-04T12:56:28;4.53;;;2.17;;
8737;SDS011;4405;49.272;8.590;2023-02-04T12:58:54;7.03;;;2.60;;
8737;SDS011;4405;49.272;8.590;2023-02-04T13:01:21;5.83;;;2.30;;
8737;SDS011;4405;49.272;8.590;2023-02-04T13:03:47;6.43;;;2.40;;
8737;SDS011;4405;49.272;8.590;2023-02-04T13:06:13;6.03;;;2.40;;
8737;SDS011;4405;49.272;8.590;2023-02-04T13:08:40;6.03;;;2.30;;
8737;SDS011;4405;49.272;8.590;2023-02-04T13:11:06;7.23;;;2.40;;
8737;SDS011;4405;49.272;8.590;2023-02-04T13:13:34;6.70;;;2.67;;
8737;SDS011;4405;49.272;8.590;2023-02-04T13:16:00;4.93;;;2.60;;
8737;SDS011;4405;49.272;8.590;2023-02-04T13:18:26;4.30;;;2.23;;
8737;SDS011;4405;49.272;8.590;2023-02-04T13:20:53;4.93;;;2.53;;
8737;SDS011;4405;49.272;8.590;2023-02-04T13:23:19;6.00;;;2.00;;
8737;SDS011;4405;49.272;8.590;2023-02-04T13:25:45;7.27;;;2.40;;
8737;SDS011;4405;49.272;8.590;2023-02-04T13:28:12;6.30;;;3.23;;
8737;SDS011;4405;49.272;8.590;2023-02-04T13:30:40;3.77;;;2.50;;
8737;SDS011;4405;49.272;8.590;2023-02-04T13:33:06;3.17;;;1.97;;
8737;SDS011;4405;49.272;8.590;2023-02-04T13:35:32;4.27;;;2.27;;
8737;SDS011;4405;49.272;8.590;2023-02-04T13:37:59;6.10;;;2.33;;
8737;SDS011;4405;49.272;8.590;2023-02-04T13:40:25;4.57;;;2.60;;
8737;SDS011;4405;49.272;8.590;2023-02-04T13:42:52;4.70;;;2.67;;
8737;SDS011;4405;49.272;8.590;2023-02-04T13:45:18;7.33;;;2.63;;
8737;SDS011;4405;49.272;8.590;2023-02-04T13:47:46;5.60;;;2.30;;
8737;SDS011;4405;49.272;8.590;2023-02-04T13:50:12;6.23;;;2.80;;
8737;SDS011;4405;49.272;8.590;2023-02-04T13:52:39;5.70;;;2.90;;
8737;SDS011;4405;49.272;8.590;2023-02-04T13:55:05;7.23;;;3.30;;
8737;SDS011;4405;49.272;8.590;2023-02-04T13:57:32;6.83;;;3.30;;
8737;SDS011;4405;49.272;8.590;2023-02-04T13:59:58;9.60;;;3.40;;
8737;SDS011;4405;49.272;8.590;2023-02-04T14:02:24;5.67;;;3.10;;
8737;SDS011;4405;49.272;8.590;2023-02-04T14:04:52;7.60;;;3.20;;
8737;SDS011;4405;49.272;8.590;2023-02-04T14:07:19;7.70;;;2.90;;
8737;SDS011;4405;49.272;8.590;2023-02-04T14:09:45;9.57;;;3.07;;
8737;SDS011;4405;49.272;8.590;2023-02-04T14:12:12;8.07;;;3.20;;
8737;SDS011;4405;49.272;8.590;2023-02-04T14:14:39;7.97;;;2.90;;
8737;SDS011;4405;49.272;8.590;2023-02-04T14:17:05;7.70;;;3.00;;
8737;SDS011;4405;49.272;8.590;2023-02-04T14:19:31;9.63;;;3.10;;
8737;SDS011;4405;49.272;8.590;2023-02-04T14:21:59;8.77;;;2.80;;
8737;SDS011;4405;49.272;8.590;2023-02-04T14:24:25;9.00;;;2.93;;
8737;SDS011;4405;49.272;8.590;2023-02-04T14:26:51;6.40;;;2.63;;
8737;SDS011;4405;49.272;8.590;2023-02-04T14:29:20;9.60;;;2.57;;
8737;SDS011;4405;49.272;8.590;2023-02-04T14:31:46;6.90;;;2.60;;
8737;SDS011;4405;49.272;8.590;2023-02-04T14:34:12;9.07;;;4.90;;
8737;SDS011;4405;49.272;8.590;2023-02-04T14:36:39;9.97;;;3.60;;
8737;SDS011;4405;49.272;8.590;2023-02-04T14:41:47;9.43;;;2.70;;
8737;SDS011;4405;49.272;8.590;2023-02-04T14:44:14;8.27;;;2.77;;
8737;SDS011;4405;49.272;8.590;2023-02-04T14:46:44;5.47;;;2.43;;
8737;SDS011;4405;49.272;8.590;2023-02-04T14:49:12;4.40;;;2.23;;
8737;SDS011;4405;49.272;8.590;2023-02-04T14:51:38;9.53;;;2.73;;
8737;SDS011;4405;49.272;8.590;2023-02-04T14:54:04;8.13;;;2.67;;
8737;SDS011;4405;49.272;8.590;2023-02-04T14:56:31;9.33;;;2.60;;
8737;SDS011;4405;49.272;8.590;2023-02-04T14:58:58;7.80;;;2.43;;
8737;SDS011;4405;49.272;8.590;2023-02-04T15:01:25;5.40;;;2.40;;
8737;SDS011;4405;49.272;8.590;2023-02-04T15:03:51;6.10;;;2.57;;
8737;SDS011;4405;49.272;8.590;2023-02-04T15:06:18;7.37;;;2.60;;
8737;SDS011;4405;49.272;8.590;2023-02-04T15:08:44;6.17;;;2.70;;
8737;SDS011;4405;49.272;8.590;2023-02-04T15:11:10;6.87;;;2.43;;
8737;SDS011;4405;49.272;8.590;2023-02-04T15:13:37;8.27;;;3.47;;